KDCA/DCA METAR and TAF weather

Enter ICAO airport designator
Station Type Date Time Source
KDCA METAR 2024/06/16 07:52 UTC NOAA

KDCA 160752Z 06003KT 10SM CLR 21/15 A3014 RMK AO2 SLP204 T02110150


Station Type Date Time Source
KDCA Decoded METAR 2024/06/16 07:52 UTC NOAA

WASHINGTON NATIONAL AIRPORT , VA, United States (KDCA) 38-51N 077-02W 18M
Jun 16, 2024 - 03:52 AM EDT / 2024.06.16 0752 UTC
Wind: from the ENE (060 degrees) at 3 MPH (3 KT):0
Visibility: 10 mile(s):0
Sky conditions: clear
Temperature: 70.0 F (21.1 C)
Dew Point: 59.0 F (15.0 C)
Relative Humidity: 68%
Pressure (altimeter): 30.14 in. Hg (1020 hPa)
ob: KDCA 160752Z 06003KT 10SM CLR 21/15 A3014 RMK AO2 SLP204 T02110150
cycle: 8

Station Type Date Time Source
KDCA TAF 2024/06/16 09:36 UTC NOAA